createdAt,value
2023-04-12T00:00:18.462Z,44.67
2023-04-12T00:02:45.969Z,44.71
2023-04-12T00:05:14.382Z,44.80
2023-04-12T00:07:43.076Z,44.55
2023-04-12T00:10:10.623Z,44.67
2023-04-12T00:12:38.000Z,45.01
2023-04-12T00:15:07.431Z,44.76
2023-04-12T00:17:35.598Z,45.02
2023-04-12T00:20:06.441Z,45.35
2023-04-12T00:22:33.784Z,45.21
2023-04-12T00:25:01.190Z,44.88
2023-04-12T00:27:30.129Z,45.36
2023-04-12T00:29:57.594Z,45.24
2023-04-12T00:32:25.062Z,45.55
2023-04-12T00:34:52.401Z,45.38
2023-04-12T00:37:21.456Z,45.67
2023-04-12T00:39:49.385Z,45.30
2023-04-12T00:42:37.184Z,45.21
2023-04-12T00:45:05.429Z,45.26
2023-04-12T00:47:35.211Z,45.16
2023-04-12T00:50:04.601Z,44.84
2023-04-12T00:52:34.569Z,44.94
2023-04-12T00:55:04.629Z,44.91
2023-04-12T00:57:37.001Z,44.91
2023-04-12T01:00:06.452Z,44.57
2023-04-12T01:02:34.900Z,44.84
2023-04-12T01:05:03.113Z,44.27
2023-04-12T01:07:37.583Z,44.93
2023-04-12T01:10:25.554Z,44.36
2023-04-12T01:13:34.956Z,44.48
2023-04-12T01:16:23.701Z,44.08
2023-04-12T01:18:59.729Z,44.26
2023-04-12T01:22:01.517Z,44.06
2023-04-12T01:25:03.919Z,43.83
2023-04-12T01:27:48.627Z,43.74
2023-04-12T01:30:18.231Z,43.27
2023-04-12T01:32:51.059Z,43.05
2023-04-12T01:35:21.754Z,43.29
2023-04-12T01:37:49.849Z,43.32
2023-04-12T01:40:18.974Z,42.98
2023-04-12T01:42:46.534Z,43.70
2023-04-12T01:45:14.264Z,43.39
2023-04-12T01:47:42.943Z,43.34
2023-04-12T01:50:18.945Z,43.56
2023-04-12T01:52:53.204Z,43.22
2023-04-12T01:55:23.022Z,43.59
2023-04-12T01:57:52.143Z,43.37
2023-04-12T02:00:20.667Z,43.03
2023-04-12T02:02:48.401Z,42.92
2023-04-12T02:05:16.887Z,42.39
2023-04-12T02:07:46.284Z,42.66
2023-04-12T02:10:15.351Z,42.53
2023-04-12T02:12:42.878Z,42.68
2023-04-12T02:15:10.583Z,42.22
2023-04-12T02:17:38.690Z,42.08
2023-04-12T02:20:12.371Z,42.65
2023-04-12T02:22:39.706Z,41.62
2023-04-12T02:25:07.576Z,41.59
2023-04-12T02:27:34.856Z,41.83
2023-04-12T02:30:03.003Z,41.77
2023-04-12T02:32:33.845Z,41.79
2023-04-12T02:35:03.061Z,41.98
2023-04-12T02:37:30.802Z,41.56
2023-04-12T02:39:59.345Z,41.91
2023-04-12T02:42:26.792Z,41.36
2023-04-12T02:44:54.104Z,41.25
2023-04-12T02:47:21.808Z,41.58
2023-04-12T02:49:50.346Z,41.18
2023-04-12T02:52:19.423Z,40.79
2023-04-12T02:55:05.958Z,41.26
2023-04-12T02:57:33.353Z,40.76
2023-04-12T03:00:01.996Z,40.01
2023-04-12T03:02:51.823Z,40.39
2023-04-12T03:05:27.639Z,40.63
2023-04-12T03:07:55.719Z,40.58
2023-04-12T03:10:45.926Z,40.22
2023-04-12T03:13:13.270Z,40.08
2023-04-12T03:15:48.126Z,40.03
2023-04-12T03:18:16.177Z,40.06
2023-04-12T03:20:49.716Z,40.08
2023-04-12T03:23:18.644Z,39.56
2023-04-12T03:25:50.518Z,40.21
2023-04-12T03:28:36.193Z,39.74
2023-04-12T03:31:06.405Z,40.05
2023-04-12T03:33:44.433Z,40.06
2023-04-12T03:36:42.624Z,39.60
2023-04-12T03:39:18.897Z,39.58
2023-04-12T03:41:51.010Z,39.84
2023-04-12T03:44:18.412Z,39.46
2023-04-12T03:46:46.334Z,39.63
2023-04-12T03:49:13.741Z,39.86
2023-04-12T03:51:43.130Z,39.59
2023-04-12T03:54:11.987Z,40.00
2023-04-12T03:56:58.139Z,39.35
2023-04-12T03:59:36.225Z,39.64
2023-04-12T04:02:04.158Z,39.50
2023-04-12T04:04:34.071Z,39.60
2023-04-12T04:07:06.789Z,39.95
2023-04-12T04:09:41.576Z,39.54
2023-04-12T04:12:10.712Z,39.88
2023-04-12T04:14:42.709Z,39.83
2023-04-12T04:17:13.889Z,39.91
2023-04-12T04:19:42.004Z,39.27
2023-04-12T04:22:10.379Z,39.83
2023-04-12T04:24:39.288Z,39.68
2023-04-12T04:27:08.067Z,39.53
2023-04-12T04:29:37.078Z,39.53
2023-04-12T04:32:04.585Z,39.43
2023-04-12T04:34:32.827Z,39.55
2023-04-12T04:37:10.363Z,39.65
2023-04-12T04:39:39.317Z,39.62
2023-04-12T04:42:07.603Z,39.73
2023-04-12T04:44:39.182Z,39.80
2023-04-12T04:47:09.881Z,40.54
2023-04-12T04:49:38.186Z,40.20
2023-04-12T04:52:18.667Z,40.24
2023-04-12T04:54:47.625Z,40.12
2023-04-12T04:57:15.972Z,40.08
2023-04-12T04:59:43.822Z,40.15
2023-04-12T05:02:17.383Z,40.00
2023-04-12T05:04:45.824Z,40.13
2023-04-12T05:07:16.500Z,40.39
2023-04-12T05:09:46.689Z,40.37
2023-04-12T05:12:19.252Z,40.30
2023-04-12T05:14:51.957Z,40.27
2023-04-12T05:17:20.175Z,40.58
2023-04-12T05:19:47.916Z,40.65
2023-04-12T05:22:20.592Z,40.29
2023-04-12T05:24:49.186Z,40.67
2023-04-12T05:27:16.995Z,40.93
2023-04-12T05:29:47.415Z,41.09
2023-04-12T05:32:17.973Z,40.88
2023-04-12T05:34:45.407Z,40.99
2023-04-12T05:37:12.961Z,41.30
2023-04-12T05:39:40.707Z,41.58
2023-04-12T05:42:10.647Z,42.31
2023-04-12T05:44:39.713Z,42.05
2023-04-12T05:47:10.819Z,42.03
2023-04-12T05:49:38.227Z,41.59
2023-04-12T05:52:09.123Z,40.68
2023-04-12T05:54:36.825Z,41.17
2023-04-12T05:57:04.871Z,40.63
2023-04-12T05:59:33.467Z,40.27
2023-04-12T06:02:03.223Z,40.54
2023-04-12T06:04:48.849Z,40.37
2023-04-12T06:07:18.199Z,39.95
2023-04-12T06:09:45.839Z,39.51
2023-04-12T06:12:15.687Z,39.11
2023-04-12T06:14:43.198Z,38.37
2023-04-12T06:17:10.866Z,38.24
2023-04-12T06:19:40.760Z,37.97
2023-04-12T06:22:09.226Z,37.84
2023-04-12T06:24:38.452Z,37.36
2023-04-12T06:27:08.924Z,37.38
2023-04-12T06:29:36.420Z,37.53
2023-04-12T06:32:04.746Z,37.14
2023-04-12T06:34:34.810Z,37.35
2023-04-12T06:37:08.010Z,37.48
2023-04-12T06:39:35.669Z,37.28
2023-04-12T06:42:03.832Z,37.40
2023-04-12T06:44:33.475Z,37.40
2023-04-12T06:47:01.910Z,37.42
2023-04-12T06:49:29.245Z,36.51
2023-04-12T06:51:56.644Z,36.78
2023-04-12T06:54:27.138Z,36.97
2023-04-12T06:56:54.933Z,36.88
2023-04-12T06:59:23.845Z,36.73
2023-04-12T07:01:52.344Z,36.49
2023-04-12T07:04:22.556Z,36.48
2023-04-12T07:06:50.104Z,36.45
2023-04-12T07:09:17.833Z,36.24
2023-04-12T07:11:45.035Z,36.52
2023-04-12T07:14:12.146Z,36.24
2023-04-12T07:16:40.644Z,35.97
2023-04-12T07:19:09.225Z,36.52
2023-04-12T07:21:40.130Z,36.64
2023-04-12T07:24:10.083Z,36.50
2023-04-12T07:26:37.764Z,36.61
2023-04-12T07:29:05.133Z,37.05
2023-04-12T07:31:32.602Z,36.89
2023-04-12T07:34:01.562Z,36.95
2023-04-12T07:36:29.698Z,37.10
2023-04-12T07:38:58.029Z,37.36
2023-04-12T07:41:26.540Z,37.31
2023-04-12T07:43:53.939Z,37.25
2023-04-12T07:46:24.581Z,37.59
2023-04-12T07:48:53.124Z,37.50
2023-04-12T07:51:20.378Z,37.45
2023-04-12T07:53:49.253Z,37.52
2023-04-12T07:56:16.984Z,37.56
2023-04-12T07:58:46.786Z,37.43
2023-04-12T08:01:15.638Z,36.87
2023-04-12T08:03:43.565Z,36.77
2023-04-12T08:06:12.559Z,36.91
2023-04-12T08:08:39.946Z,36.78
2023-04-12T08:11:07.733Z,36.50
2023-04-12T08:13:35.810Z,36.40
2023-04-12T08:16:03.413Z,36.19
2023-04-12T08:18:36.296Z,35.99
2023-04-12T08:21:04.064Z,35.78
2023-04-12T08:23:33.001Z,35.61
2023-04-12T08:26:04.013Z,35.46
2023-04-12T08:28:32.184Z,35.61
2023-04-12T08:31:02.322Z,36.90
2023-04-12T08:33:29.979Z,38.07
2023-04-12T08:35:59.015Z,39.80
2023-04-12T08:38:37.678Z,40.93
2023-04-12T08:41:13.119Z,43.28
2023-04-12T08:43:45.169Z,44.19
2023-04-12T08:46:16.060Z,44.06
2023-04-12T08:48:48.432Z,44.84
2023-04-12T08:51:36.691Z,45.73
2023-04-12T08:54:05.735Z,45.13
2023-04-12T08:56:33.858Z,45.49
2023-04-12T08:59:02.036Z,45.48
2023-04-12T09:01:30.794Z,46.06
2023-04-12T09:03:58.447Z,45.60
2023-04-12T09:06:26.404Z,44.15
2023-04-12T09:08:58.254Z,43.88
2023-04-12T09:11:28.592Z,43.77
2023-04-12T09:13:58.482Z,42.67
2023-04-12T09:16:40.782Z,42.68
2023-04-12T09:19:09.291Z,42.27
2023-04-12T09:21:37.374Z,42.43
2023-04-12T09:24:14.320Z,42.12
2023-04-12T09:26:42.672Z,43.10
2023-04-12T09:29:27.334Z,43.71
2023-04-12T09:32:02.025Z,43.33
2023-04-12T09:34:33.372Z,43.50
2023-04-12T09:37:00.733Z,43.00
2023-04-12T09:39:46.857Z,42.88
2023-04-12T09:42:36.843Z,44.44
2023-04-12T09:45:24.368Z,45.29
2023-04-12T09:47:53.065Z,44.83
2023-04-12T09:50:28.991Z,44.65
2023-04-12T09:52:57.772Z,45.42
2023-04-12T09:55:32.916Z,44.83
2023-04-12T09:58:05.173Z,45.02
2023-04-12T10:00:34.704Z,45.59
2023-04-12T10:03:03.630Z,46.07
2023-04-12T10:05:31.668Z,45.12
2023-04-12T10:08:02.298Z,45.06
2023-04-12T10:10:31.439Z,45.65
2023-04-12T10:13:01.612Z,45.33
2023-04-12T10:15:29.873Z,45.25
2023-04-12T10:18:11.091Z,45.69
2023-04-12T10:20:44.561Z,45.36
2023-04-12T10:23:17.015Z,45.37
2023-04-12T10:25:47.212Z,45.56
2023-04-12T10:28:24.364Z,44.63
2023-04-12T10:30:52.491Z,45.56
2023-04-12T10:33:25.567Z,45.11
2023-04-12T10:36:11.113Z,44.94
2023-04-12T10:38:48.522Z,44.45
2023-04-12T10:41:20.266Z,43.96
2023-04-12T10:43:54.636Z,42.79
2023-04-12T10:46:39.316Z,42.47
2023-04-12T10:49:12.606Z,42.20
2023-04-12T10:51:41.373Z,42.21
2023-04-12T10:54:11.723Z,41.57
2023-04-12T10:56:43.964Z,41.43
2023-04-12T10:59:58.027Z,40.06
2023-04-12T11:02:27.031Z,40.10
2023-04-12T11:05:14.803Z,40.41
2023-04-12T11:08:12.623Z,39.97
2023-04-12T11:10:41.844Z,40.29
2023-04-12T11:13:17.327Z,40.46
2023-04-12T11:15:44.737Z,40.10
2023-04-12T11:18:13.177Z,39.93
2023-04-12T11:20:43.495Z,40.38
2023-04-12T11:23:12.141Z,40.09
2023-04-12T11:25:40.552Z,40.01
2023-04-12T11:28:21.372Z,39.75
2023-04-12T11:30:57.277Z,39.77
2023-04-12T11:33:41.708Z,39.80
2023-04-12T11:36:12.693Z,39.63
2023-04-12T11:38:40.587Z,39.00
2023-04-12T11:41:09.581Z,39.38
2023-04-12T11:43:41.606Z,38.45
2023-04-12T11:46:09.721Z,38.43
2023-04-12T11:48:39.040Z,37.92
2023-04-12T11:51:25.213Z,37.74
2023-04-12T11:53:54.165Z,37.81
2023-04-12T11:56:23.146Z,36.92
2023-04-12T11:58:51.272Z,37.32
2023-04-12T12:01:23.652Z,36.83
2023-04-12T12:03:56.055Z,36.66
2023-04-12T12:06:24.513Z,36.33
2023-04-12T12:08:53.045Z,37.01
2023-04-12T12:11:26.921Z,37.20
2023-04-12T12:13:56.141Z,36.92
2023-04-12T12:16:28.992Z,37.01
2023-04-12T12:18:58.014Z,36.80
2023-04-12T12:21:27.673Z,36.93
2023-04-12T12:23:57.466Z,37.01
2023-04-12T12:26:28.567Z,36.70
2023-04-12T12:28:57.877Z,36.08
2023-04-12T12:31:31.437Z,35.42
2023-04-12T12:34:01.480Z,34.98
2023-04-12T12:36:36.495Z,33.98
2023-04-12T12:39:11.370Z,33.69
2023-04-12T12:41:57.811Z,33.64
2023-04-12T12:44:25.497Z,33.33
2023-04-12T12:46:58.728Z,33.12
2023-04-12T12:49:33.869Z,33.61
2023-04-12T12:52:01.548Z,33.53
2023-04-12T12:54:40.651Z,33.66
2023-04-12T12:57:08.965Z,33.15
2023-04-12T12:59:36.379Z,33.22
2023-04-12T13:02:03.924Z,33.00
2023-04-12T13:04:31.573Z,32.94
2023-04-12T13:06:59.228Z,33.08
2023-04-12T13:09:27.266Z,33.16
2023-04-12T13:11:54.736Z,33.25
2023-04-12T13:14:22.110Z,33.36
2023-04-12T13:17:07.790Z,33.05
2023-04-12T13:19:35.262Z,33.39
2023-04-12T13:22:02.630Z,33.59
2023-04-12T13:24:30.461Z,33.67
2023-04-12T13:26:58.564Z,34.06
2023-04-12T13:29:26.128Z,33.51
2023-04-12T13:31:53.492Z,33.58
2023-04-12T13:34:21.392Z,33.72
2023-04-12T13:36:49.960Z,33.52
2023-04-12T13:39:17.465Z,33.36
2023-04-12T13:41:44.852Z,33.51
2023-04-12T13:44:30.596Z,33.43
2023-04-12T13:46:57.973Z,33.52
2023-04-12T13:49:25.498Z,33.56
2023-04-12T13:51:52.948Z,33.40
2023-04-12T13:54:20.404Z,33.99
2023-04-12T13:56:48.262Z,33.52
2023-04-12T13:59:15.715Z,33.85
2023-04-12T14:01:43.347Z,34.21
2023-04-12T14:04:10.785Z,34.17
2023-04-12T14:06:38.973Z,33.86
2023-04-12T14:09:06.355Z,33.66
2023-04-12T14:11:47.836Z,33.54
2023-04-12T14:14:16.837Z,33.87
2023-04-12T14:16:45.123Z,33.95
2023-04-12T14:19:13.071Z,33.81
2023-04-12T14:21:40.526Z,34.00
2023-04-12T14:24:07.985Z,33.97
2023-04-12T14:26:35.728Z,34.48
2023-04-12T14:29:03.171Z,34.58
2023-04-12T14:31:30.621Z,34.50
2023-04-12T14:33:58.328Z,34.72
2023-04-12T14:36:27.723Z,34.68
2023-04-12T14:38:56.406Z,34.82
2023-04-12T14:41:24.038Z,35.24
2023-04-12T14:43:51.670Z,35.03
2023-04-12T14:46:19.134Z,35.45
2023-04-12T14:48:46.604Z,35.51
2023-04-12T14:51:13.949Z,35.86
2023-04-12T14:53:43.029Z,35.72
2023-04-12T14:56:24.011Z,36.10
2023-04-12T14:58:54.409Z,36.17
2023-04-12T15:01:23.744Z,36.27
2023-04-12T15:03:52.681Z,36.54
2023-04-12T15:06:24.126Z,36.82
2023-04-12T15:09:10.512Z,37.01
2023-04-12T15:11:38.456Z,37.33
2023-04-12T15:14:07.632Z,37.36
2023-04-12T15:16:35.424Z,37.67
2023-04-12T15:19:10.183Z,38.66
2023-04-12T15:21:40.987Z,38.92
2023-04-12T15:24:08.524Z,39.44
2023-04-12T15:26:38.572Z,39.46
2023-04-12T15:29:05.932Z,39.64
2023-04-12T15:31:33.356Z,40.17
2023-04-12T15:34:01.381Z,40.30
2023-04-12T15:36:36.723Z,40.42
2023-04-12T15:39:07.360Z,40.50
2023-04-12T15:41:37.630Z,40.71
2023-04-12T15:44:06.083Z,40.83
2023-04-12T15:46:34.110Z,40.98
2023-04-12T15:49:02.433Z,41.40
2023-04-12T15:51:30.068Z,41.40
2023-04-12T15:53:57.713Z,41.55
2023-04-12T15:56:25.616Z,41.92
2023-04-12T15:58:58.016Z,42.05
2023-04-12T16:01:25.796Z,42.17
2023-04-12T16:03:53.775Z,42.41
2023-04-12T16:06:21.578Z,42.43
2023-04-12T16:08:53.686Z,42.71
2023-04-12T16:11:24.084Z,43.04
2023-04-12T16:13:52.679Z,43.53
2023-04-12T16:16:22.859Z,43.14
2023-04-12T16:18:51.784Z,43.49
2023-04-12T16:21:21.717Z,43.74
2023-04-12T16:23:51.271Z,44.21
2023-04-12T16:26:23.330Z,44.35
2023-04-12T16:28:53.605Z,44.25
2023-04-12T16:31:21.947Z,44.40
2023-04-12T16:33:49.682Z,44.48
2023-04-12T16:36:17.284Z,44.89
2023-04-12T16:38:48.165Z,44.79
2023-04-12T16:41:17.925Z,45.36
2023-04-12T16:43:45.680Z,45.28
2023-04-12T16:46:13.053Z,45.65
2023-04-12T16:48:41.479Z,45.60
2023-04-12T16:51:09.073Z,46.00
2023-04-12T16:53:36.954Z,45.93
2023-04-12T16:56:24.947Z,45.98
2023-04-12T16:58:52.401Z,46.19
2023-04-12T17:01:19.788Z,46.27
2023-04-12T17:03:47.832Z,46.13
2023-04-12T17:06:34.244Z,46.37
2023-04-12T17:09:01.713Z,46.50
2023-04-12T17:11:29.961Z,46.43
2023-04-12T17:13:57.823Z,46.86
2023-04-12T17:16:25.819Z,46.77
2023-04-12T17:18:53.108Z,46.42
2023-04-12T17:21:20.724Z,46.92
2023-04-12T17:23:51.346Z,46.90
2023-04-12T17:26:20.677Z,47.03
2023-04-12T17:28:50.147Z,46.96
2023-04-12T17:31:17.612Z,47.11
2023-04-12T17:33:45.024Z,47.02
2023-04-12T17:36:12.505Z,47.39
2023-04-12T17:38:40.021Z,47.23
2023-04-12T17:41:09.592Z,47.45
2023-04-12T17:43:37.108Z,47.29
2023-04-12T17:46:06.036Z,47.42
2023-04-12T17:48:33.552Z,47.48
2023-04-12T17:51:02.684Z,47.62
2023-04-12T17:53:30.080Z,48.05
2023-04-12T17:55:57.846Z,48.07
2023-04-12T17:58:25.197Z,48.53
2023-04-12T18:00:52.865Z,48.33
2023-04-12T18:03:20.409Z,48.48
2023-04-12T18:08:32.570Z,48.65
2023-04-12T18:11:00.921Z,48.84
2023-04-12T18:13:28.344Z,49.25
2023-04-12T18:15:55.833Z,48.79
2023-04-12T18:18:23.266Z,49.03
2023-04-12T18:20:50.912Z,49.15
2023-04-12T18:23:18.320Z,49.48
2023-04-12T18:25:45.747Z,49.33
2023-04-12T18:28:13.187Z,49.28
2023-04-12T18:30:40.751Z,49.41
2023-04-12T18:33:08.448Z,49.24
2023-04-12T18:35:39.040Z,49.21
2023-04-12T18:38:06.410Z,49.16
2023-04-12T18:40:38.078Z,49.21
2023-04-12T18:43:05.682Z,49.14
2023-04-12T18:45:33.188Z,49.09
2023-04-12T18:48:00.772Z,49.03
2023-04-12T18:50:28.327Z,49.17
2023-04-12T18:52:55.649Z,48.84
2023-04-12T18:55:23.088Z,48.76
2023-04-12T18:57:50.492Z,48.83
2023-04-12T19:00:19.885Z,48.97
2023-04-12T19:02:47.302Z,48.86
2023-04-12T19:05:15.506Z,48.58
2023-04-12T19:08:01.940Z,48.51
2023-04-12T19:10:31.664Z,48.45
2023-04-12T19:12:59.335Z,48.49
2023-04-12T19:15:27.348Z,48.42
2023-04-12T19:17:54.795Z,48.47
2023-04-12T19:20:40.548Z,48.26
2023-04-12T19:23:08.780Z,48.36
2023-04-12T19:25:36.259Z,48.04
2023-04-12T19:28:03.800Z,48.14
2023-04-12T19:30:32.665Z,47.96
2023-04-12T19:33:00.219Z,47.84
2023-04-12T19:35:32.848Z,47.58
2023-04-12T19:38:00.315Z,47.62
2023-04-12T19:40:29.326Z,47.32
2023-04-12T19:42:58.432Z,47.95
2023-04-12T19:45:27.846Z,47.57
2023-04-12T19:48:13.585Z,47.69
2023-04-12T19:50:41.816Z,47.44
2023-04-12T19:53:11.308Z,47.83
2023-04-12T19:55:39.333Z,48.06
2023-04-12T19:58:25.481Z,47.69
2023-04-12T20:00:54.698Z,48.06
2023-04-12T20:03:22.984Z,47.64
2023-04-12T20:05:51.161Z,47.67
2023-04-12T20:08:18.556Z,47.32
2023-04-12T20:10:45.943Z,47.74
2023-04-12T20:13:15.490Z,47.65
2023-04-12T20:15:43.264Z,47.03
2023-04-12T20:18:13.160Z,47.14
2023-04-12T20:20:44.298Z,46.96
2023-04-12T20:23:32.172Z,46.81
2023-04-12T20:25:59.495Z,47.04
2023-04-12T20:28:26.838Z,46.84
2023-04-12T20:30:54.147Z,46.59
2023-04-12T20:33:21.505Z,46.51
2023-04-12T20:35:51.473Z,46.80
2023-04-12T20:38:18.818Z,47.07
2023-04-12T20:40:46.572Z,46.96
2023-04-12T20:43:13.856Z,47.00
2023-04-12T20:45:41.142Z,47.20
2023-04-12T20:48:09.954Z,47.28
2023-04-12T20:50:37.650Z,47.18
2023-04-12T20:53:04.921Z,47.36
2023-04-12T20:55:35.232Z,47.35
2023-04-12T20:58:22.082Z,47.48
2023-04-12T21:00:49.708Z,47.26
2023-04-12T21:06:05.615Z,47.42
2023-04-12T21:08:33.997Z,47.38
2023-04-12T21:11:02.341Z,46.87
2023-04-12T21:13:33.665Z,46.68
2023-04-12T21:16:44.015Z,46.79
2023-04-12T21:19:13.105Z,46.59
2023-04-12T21:21:40.969Z,46.66
2023-04-12T21:24:08.171Z,46.50
2023-04-12T21:26:35.747Z,46.49
2023-04-12T21:29:03.057Z,46.18
2023-04-12T21:31:30.918Z,46.09
2023-04-12T21:34:02.075Z,45.78
2023-04-12T21:36:30.472Z,45.84
2023-04-12T21:38:59.445Z,45.56
2023-04-12T21:41:26.813Z,45.48
2023-04-12T21:43:54.097Z,45.35
2023-04-12T21:46:21.524Z,45.47
2023-04-12T21:48:48.848Z,45.31
2023-04-12T21:51:16.124Z,45.24
2023-04-12T21:53:43.623Z,45.32
2023-04-12T21:56:11.108Z,45.35
2023-04-12T21:58:38.439Z,45.29
2023-04-12T22:01:24.505Z,45.45
2023-04-12T22:03:53.276Z,45.19
2023-04-12T22:06:20.622Z,45.42
2023-04-12T22:08:48.474Z,45.24
2023-04-12T22:11:15.598Z,45.14
2023-04-12T22:13:42.871Z,45.17
2023-04-12T22:16:14.089Z,45.08
2023-04-12T22:18:42.819Z,45.33
2023-04-12T22:21:11.666Z,45.36
2023-04-12T22:23:42.139Z,45.34
2023-04-12T22:26:46.878Z,45.18
2023-04-12T22:29:17.628Z,45.63
2023-04-12T22:31:47.865Z,45.60
2023-04-12T22:34:15.513Z,45.33
2023-04-12T22:36:43.170Z,45.39
2023-04-12T22:39:10.850Z,45.43
2023-04-12T22:41:39.214Z,45.36
2023-04-12T22:44:07.872Z,45.48
2023-04-12T22:46:39.402Z,45.49
2023-04-12T22:49:07.500Z,45.54
2023-04-12T22:51:34.931Z,45.68
2023-04-12T22:54:02.942Z,45.56
2023-04-12T22:56:30.453Z,45.48
2023-04-12T22:58:58.029Z,46.02
2023-04-12T23:01:25.494Z,46.10
2023-04-12T23:03:52.987Z,46.18
2023-04-12T23:06:20.829Z,46.08
2023-04-12T23:08:49.902Z,45.96
2023-04-12T23:11:40.996Z,45.88
2023-04-12T23:14:26.649Z,46.04
2023-04-12T23:17:12.841Z,46.33
2023-04-12T23:20:02.041Z,46.12
2023-04-12T23:23:06.787Z,46.11
2023-04-12T23:26:11.192Z,46.25
2023-04-12T23:28:40.592Z,46.34
2023-04-12T23:31:26.710Z,46.39
2023-04-12T23:33:55.271Z,46.16
2023-04-12T23:36:25.966Z,46.82
2023-04-12T23:38:55.597Z,46.64
2023-04-12T23:41:24.717Z,46.86
2023-04-12T23:43:55.342Z,47.46
2023-04-12T23:46:41.393Z,47.43
2023-04-12T23:49:27.281Z,47.69
2023-04-12T23:51:55.200Z,47.77
2023-04-12T23:54:40.888Z,47.74
2023-04-12T23:57:08.482Z,47.77
2023-04-12T23:59:35.879Z,47.57
